sensor_id;sensor_type;location;lat;lon;timestamp;pressure;altitude;pressure_sealevel;temperature;humidity
9129;BME280;4599;50.906;6.786;2023-11-25T00:03:32;99860.94;;;1.80;91.66
9129;BME280;4599;50.906;6.786;2023-11-25T00:07:33;99857.53;;;1.99;90.91
9129;BME280;4599;50.906;6.786;2023-11-25T00:11:35;99864.72;;;1.90;91.86
9129;BME280;4599;50.906;6.786;2023-11-25T00:15:38;99869.44;;;1.97;91.90
9129;BME280;4599;50.906;6.786;2023-11-25T00:19:39;99871.63;;;2.05;91.39
9129;BME280;4599;50.906;6.786;2023-11-25T00:23:41;99877.47;;;2.06;92.13
9129;BME280;4599;50.906;6.786;2023-11-25T00:27:43;99880.63;;;2.11;91.63
9129;BME280;4599;50.906;6.786;2023-11-25T00:31:47;99875.09;;;2.03;90.93
9129;BME280;4599;50.906;6.786;2023-11-25T00:35:48;99880.97;;;2.03;91.50
9129;BME280;4599;50.906;6.786;2023-11-25T00:39:50;99889.16;;;1.89;92.14
9129;BME280;4599;50.906;6.786;2023-11-25T00:43:52;99888.09;;;1.75;92.48
9129;BME280;4599;50.906;6.786;2023-11-25T00:47:54;99893.78;;;1.80;92.21
9129;BME280;4599;50.906;6.786;2023-11-25T00:51:56;99906.09;;;1.87;92.06
9129;BME280;4599;50.906;6.786;2023-11-25T00:55:58;99911.34;;;1.83;92.80
9129;BME280;4599;50.906;6.786;2023-11-25T01:00:00;99910.50;;;1.82;92.11
9129;BME280;4599;50.906;6.786;2023-11-25T01:04:03;99909.41;;;1.69;93.21
9129;BME280;4599;50.906;6.786;2023-11-25T01:08:05;99908.72;;;1.66;93.22
9129;BME280;4599;50.906;6.786;2023-11-25T01:12:07;99914.59;;;1.66;93.18
9129;BME280;4599;50.906;6.786;2023-11-25T01:16:14;99922.31;;;1.82;92.75
9129;BME280;4599;50.906;6.786;2023-11-25T01:20:17;99921.38;;;1.64;93.63
9129;BME280;4599;50.906;6.786;2023-11-25T01:24:19;99920.66;;;1.62;93.46
9129;BME280;4599;50.906;6.786;2023-11-25T01:28:20;99924.88;;;1.62;93.64
9129;BME280;4599;50.906;6.786;2023-11-25T01:32:22;99934.78;;;1.66;92.85
9129;BME280;4599;50.906;6.786;2023-11-25T01:36:25;99939.63;;;1.50;93.64
9129;BME280;4599;50.906;6.786;2023-11-25T01:40:26;99944.94;;;1.44;93.51
9129;BME280;4599;50.906;6.786;2023-11-25T01:44:28;99951.00;;;1.40;94.10
9129;BME280;4599;50.906;6.786;2023-11-25T01:48:30;99947.38;;;1.26;93.70
9129;BME280;4599;50.906;6.786;2023-11-25T01:52:33;99962.09;;;1.36;93.73
9129;BME280;4599;50.906;6.786;2023-11-25T01:56:36;99961.03;;;1.42;94.00
9129;BME280;4599;50.906;6.786;2023-11-25T02:00:37;99958.31;;;1.46;94.03
9129;BME280;4599;50.906;6.786;2023-11-25T02:04:39;99949.47;;;1.57;93.46
9129;BME280;4599;50.906;6.786;2023-11-25T02:08:43;99954.34;;;1.41;94.13
9129;BME280;4599;50.906;6.786;2023-11-25T02:12:45;99946.97;;;1.36;93.27
9129;BME280;4599;50.906;6.786;2023-11-25T02:16:46;99950.78;;;1.25;94.14
9129;BME280;4599;50.906;6.786;2023-11-25T02:20:48;99952.19;;;1.32;93.51
9129;BME280;4599;50.906;6.786;2023-11-25T02:24:55;99944.34;;;1.18;93.78
9129;BME280;4599;50.906;6.786;2023-11-25T02:28:56;99939.16;;;1.21;92.86
9129;BME280;4599;50.906;6.786;2023-11-25T02:32:58;99945.13;;;1.20;93.67
9129;BME280;4599;50.906;6.786;2023-11-25T02:36:59;99941.22;;;1.33;93.52
9129;BME280;4599;50.906;6.786;2023-11-25T02:41:02;99944.59;;;1.32;93.15
9129;BME280;4599;50.906;6.786;2023-11-25T02:45:05;99926.66;;;1.18;93.89
9129;BME280;4599;50.906;6.786;2023-11-25T02:49:06;99939.44;;;1.35;93.49
9129;BME280;4599;50.906;6.786;2023-11-25T02:53:08;99937.28;;;1.26;93.47
9129;BME280;4599;50.906;6.786;2023-11-25T02:57:11;99949.66;;;1.32;93.12
9129;BME280;4599;50.906;6.786;2023-11-25T03:01:12;99941.25;;;1.31;93.17
9129;BME280;4599;50.906;6.786;2023-11-25T03:05:14;99945.50;;;1.31;94.00
9129;BME280;4599;50.906;6.786;2023-11-25T03:09:16;99948.97;;;1.28;94.19
9129;BME280;4599;50.906;6.786;2023-11-25T03:13:19;99950.66;;;1.28;94.28
9129;BME280;4599;50.906;6.786;2023-11-25T03:17:21;99945.50;;;1.31;93.71
9129;BME280;4599;50.906;6.786;2023-11-25T03:21:22;99944.38;;;1.38;93.66
9129;BME280;4599;50.906;6.786;2023-11-25T03:25:24;99947.78;;;1.37;93.25
9129;BME280;4599;50.906;6.786;2023-11-25T03:29:27;99957.22;;;1.32;93.84
9129;BME280;4599;50.906;6.786;2023-11-25T03:33:28;99953.00;;;1.32;93.38
9129;BME280;4599;50.906;6.786;2023-11-25T03:37:30;99953.19;;;1.28;93.53
9129;BME280;4599;50.906;6.786;2023-11-25T03:41:32;99952.25;;;1.30;93.63
9129;BME280;4599;50.906;6.786;2023-11-25T03:45:34;99955.59;;;1.31;93.34
9129;BME280;4599;50.906;6.786;2023-11-25T03:49:36;99953.44;;;1.22;94.14
9129;BME280;4599;50.906;6.786;2023-11-25T03:53:38;99945.31;;;1.35;93.25
9129;BME280;4599;50.906;6.786;2023-11-25T03:57:39;99948.91;;;1.30;93.64
9129;BME280;4599;50.906;6.786;2023-11-25T04:01:43;99941.38;;;1.28;94.00
9129;BME280;4599;50.906;6.786;2023-11-25T04:05:45;99952.88;;;1.35;94.36
9129;BME280;4599;50.906;6.786;2023-11-25T04:09:46;99948.91;;;1.30;94.28
9129;BME280;4599;50.906;6.786;2023-11-25T04:13:48;99940.91;;;1.40;94.01
9129;BME280;4599;50.906;6.786;2023-11-25T04:17:51;99939.00;;;1.66;93.89
9129;BME280;4599;50.906;6.786;2023-11-25T04:21:53;99937.94;;;1.71;93.30
9129;BME280;4599;50.906;6.786;2023-11-25T04:25:55;99937.19;;;1.69;93.96
9129;BME280;4599;50.906;6.786;2023-11-25T04:29:57;99936.59;;;1.83;93.35
9129;BME280;4599;50.906;6.786;2023-11-25T04:33:59;99943.31;;;1.84;93.08
9129;BME280;4599;50.906;6.786;2023-11-25T04:38:01;99941.50;;;1.86;92.66
9129;BME280;4599;50.906;6.786;2023-11-25T04:42:03;99940.56;;;1.88;92.51
9129;BME280;4599;50.906;6.786;2023-11-25T04:46:09;99938.97;;;1.86;92.38
9129;BME280;4599;50.906;6.786;2023-11-25T04:50:12;99947.44;;;1.85;92.38
9129;BME280;4599;50.906;6.786;2023-11-25T04:54:14;99946.97;;;1.77;92.23
9129;BME280;4599;50.906;6.786;2023-11-25T04:58:15;99945.22;;;1.77;92.43
9129;BME280;4599;50.906;6.786;2023-11-25T05:02:17;99952.34;;;1.69;93.61
9129;BME280;4599;50.906;6.786;2023-11-25T05:06:20;99941.47;;;1.67;93.58
9129;BME280;4599;50.906;6.786;2023-11-25T05:10:22;99940.13;;;1.79;92.96
9129;BME280;4599;50.906;6.786;2023-11-25T05:14:23;99950.75;;;1.87;93.01
9129;BME280;4599;50.906;6.786;2023-11-25T05:18:25;99935.03;;;1.80;92.84
9129;BME280;4599;50.906;6.786;2023-11-25T05:22:28;99936.47;;;1.86;93.28
9129;BME280;4599;50.906;6.786;2023-11-25T05:26:30;99944.22;;;2.02;92.95
9129;BME280;4599;50.906;6.786;2023-11-25T05:30:32;99951.72;;;2.03;93.09
9129;BME280;4599;50.906;6.786;2023-11-25T05:34:33;99936.38;;;2.08;92.54
9129;BME280;4599;50.906;6.786;2023-11-25T05:38:36;99943.94;;;2.08;93.32
9129;BME280;4599;50.906;6.786;2023-11-25T05:42:38;99934.72;;;2.07;93.39
9129;BME280;4599;50.906;6.786;2023-11-25T05:46:39;99937.94;;;2.29;92.22
9129;BME280;4599;50.906;6.786;2023-11-25T05:50:41;99929.81;;;2.22;92.21
9129;BME280;4599;50.906;6.786;2023-11-25T05:54:44;99933.41;;;2.17;92.33
9129;BME280;4599;50.906;6.786;2023-11-25T05:58:45;99939.38;;;2.16;92.86
9129;BME280;4599;50.906;6.786;2023-11-25T06:02:47;99928.81;;;2.26;92.55
9129;BME280;4599;50.906;6.786;2023-11-25T06:06:48;99931.88;;;2.33;91.66
9129;BME280;4599;50.906;6.786;2023-11-25T06:10:51;99917.59;;;2.32;91.21
9129;BME280;4599;50.906;6.786;2023-11-25T06:14:54;99916.50;;;2.19;91.88
9129;BME280;4599;50.906;6.786;2023-11-25T06:18:55;99928.31;;;2.37;91.42
9129;BME280;4599;50.906;6.786;2023-11-25T06:22:57;99916.28;;;2.42;91.44
9129;BME280;4599;50.906;6.786;2023-11-25T06:27:00;99912.31;;;2.36;91.79
9129;BME280;4599;50.906;6.786;2023-11-25T06:31:01;99911.91;;;2.45;90.82
9129;BME280;4599;50.906;6.786;2023-11-25T06:35:03;99910.06;;;2.49;90.52
9129;BME280;4599;50.906;6.786;2023-11-25T06:39:05;99899.88;;;2.50;90.56
9129;BME280;4599;50.906;6.786;2023-11-25T06:43:08;99903.97;;;2.53;91.00
9129;BME280;4599;50.906;6.786;2023-11-25T06:47:13;99909.16;;;2.50;90.70
9129;BME280;4599;50.906;6.786;2023-11-25T06:51:17;99907.03;;;2.60;90.79
9129;BME280;4599;50.906;6.786;2023-11-25T06:55:19;99906.22;;;2.59;91.53
9129;BME280;4599;50.906;6.786;2023-11-25T06:59:22;99919.63;;;2.61;90.97
9129;BME280;4599;50.906;6.786;2023-11-25T07:03:23;99920.31;;;2.65;91.34
9129;BME280;4599;50.906;6.786;2023-11-25T07:07:25;99916.06;;;2.65;91.61
9129;BME280;4599;50.906;6.786;2023-11-25T07:11:27;99919.81;;;2.75;91.47
9129;BME280;4599;50.906;6.786;2023-11-25T07:15:30;99934.44;;;2.69;92.58
9129;BME280;4599;50.906;6.786;2023-11-25T07:19:32;99934.72;;;2.63;92.55
9129;BME280;4599;50.906;6.786;2023-11-25T07:23:33;99929.59;;;2.64;93.69
9129;BME280;4599;50.906;6.786;2023-11-25T07:27:35;99917.25;;;2.58;93.92
9129;BME280;4599;50.906;6.786;2023-11-25T07:31:38;99916.59;;;2.72;93.71
9129;BME280;4599;50.906;6.786;2023-11-25T07:35:40;99914.41;;;2.83;92.66
9129;BME280;4599;50.906;6.786;2023-11-25T07:39:42;99907.06;;;2.77;92.88
9129;BME280;4599;50.906;6.786;2023-11-25T07:43:43;99910.78;;;2.70;93.27
9129;BME280;4599;50.906;6.786;2023-11-25T07:47:46;99908.50;;;2.82;93.39
9129;BME280;4599;50.906;6.786;2023-11-25T07:51:48;99913.78;;;2.78;92.77
9129;BME280;4599;50.906;6.786;2023-11-25T07:55:50;99906.97;;;2.61;93.46
9129;BME280;4599;50.906;6.786;2023-11-25T07:59:51;99901.25;;;2.58;93.68
9129;BME280;4599;50.906;6.786;2023-11-25T08:03:54;99902.94;;;2.57;93.83
9129;BME280;4599;50.906;6.786;2023-11-25T08:07:56;99893.75;;;2.73;93.85
9129;BME280;4599;50.906;6.786;2023-11-25T08:11:58;99894.41;;;2.77;94.11
9129;BME280;4599;50.906;6.786;2023-11-25T08:15:59;99906.88;;;2.98;93.88
9129;BME280;4599;50.906;6.786;2023-11-25T08:20:03;99902.81;;;3.13;93.40
9129;BME280;4599;50.906;6.786;2023-11-25T08:24:05;99897.16;;;3.08;92.78
9129;BME280;4599;50.906;6.786;2023-11-25T08:28:07;99910.50;;;3.12;93.22
9129;BME280;4599;50.906;6.786;2023-11-25T08:32:09;99912.25;;;3.10;92.67
9129;BME280;4599;50.906;6.786;2023-11-25T08:36:14;99911.44;;;3.09;92.81
9129;BME280;4599;50.906;6.786;2023-11-25T08:40:16;99918.19;;;3.09;93.29
9129;BME280;4599;50.906;6.786;2023-11-25T08:44:19;99908.84;;;3.11;92.83
9129;BME280;4599;50.906;6.786;2023-11-25T08:48:20;99906.53;;;3.06;92.72
9129;BME280;4599;50.906;6.786;2023-11-25T08:52:23;99897.44;;;3.02;92.69
9129;BME280;4599;50.906;6.786;2023-11-25T08:56:24;99901.66;;;3.01;93.53
9129;BME280;4599;50.906;6.786;2023-11-25T09:00:31;99907.56;;;3.19;92.85
9129;BME280;4599;50.906;6.786;2023-11-25T09:04:32;99914.88;;;3.25;93.17
9129;BME280;4599;50.906;6.786;2023-11-25T09:08:35;99913.69;;;3.32;92.45
9129;BME280;4599;50.906;6.786;2023-11-25T09:12:37;99899.75;;;3.24;93.20
9129;BME280;4599;50.906;6.786;2023-11-25T09:16:38;99906.44;;;3.42;93.48
9129;BME280;4599;50.906;6.786;2023-11-25T09:20:40;99902.78;;;3.47;93.44
9129;BME280;4599;50.906;6.786;2023-11-25T09:24:43;99888.94;;;3.87;92.83
9129;BME280;4599;50.906;6.786;2023-11-25T09:28:44;99901.63;;;4.19;91.34
9129;BME280;4599;50.906;6.786;2023-11-25T09:32:46;99891.34;;;4.22;91.30
9129;BME280;4599;50.906;6.786;2023-11-25T09:36:47;99891.19;;;4.25;90.45
9129;BME280;4599;50.906;6.786;2023-11-25T09:40:50;99901.09;;;4.14;90.82
9129;BME280;4599;50.906;6.786;2023-11-25T09:44:52;99895.34;;;4.26;91.60
9129;BME280;4599;50.906;6.786;2023-11-25T09:48:53;99896.19;;;4.42;89.29
9129;BME280;4599;50.906;6.786;2023-11-25T09:52:58;99887.66;;;4.27;90.45
9129;BME280;4599;50.906;6.786;2023-11-25T09:57:03;99886.34;;;4.20;89.74
9129;BME280;4599;50.906;6.786;2023-11-25T10:01:05;99880.78;;;4.45;91.08
9129;BME280;4599;50.906;6.786;2023-11-25T10:05:07;99873.81;;;4.64;90.30
9129;BME280;4599;50.906;6.786;2023-11-25T10:09:09;99884.75;;;5.10;89.08
9129;BME280;4599;50.906;6.786;2023-11-25T10:13:14;99874.56;;;4.96;87.41
9129;BME280;4599;50.906;6.786;2023-11-25T10:17:16;99859.13;;;5.29;87.58
9129;BME280;4599;50.906;6.786;2023-11-25T10:21:19;99861.91;;;5.96;85.64
9129;BME280;4599;50.906;6.786;2023-11-25T10:25:21;99874.81;;;6.34;83.72
9129;BME280;4599;50.906;6.786;2023-11-25T10:29:24;99857.53;;;5.84;84.32
9129;BME280;4599;50.906;6.786;2023-11-25T10:33:26;99858.63;;;5.52;85.14
9129;BME280;4599;50.906;6.786;2023-11-25T10:37:30;99851.47;;;5.59;85.38
9129;BME280;4599;50.906;6.786;2023-11-25T10:41:33;99854.53;;;5.49;85.15
9129;BME280;4599;50.906;6.786;2023-11-25T10:45:36;99844.84;;;5.70;83.13
9129;BME280;4599;50.906;6.786;2023-11-25T10:49:39;99842.28;;;5.84;83.18
9129;BME280;4599;50.906;6.786;2023-11-25T10:53:44;99839.63;;;6.68;80.32
9129;BME280;4599;50.906;6.786;2023-11-25T10:57:46;99831.41;;;6.37;80.67
9129;BME280;4599;50.906;6.786;2023-11-25T11:01:50;99827.09;;;6.11;81.23
9129;BME280;4599;50.906;6.786;2023-11-25T11:05:54;99841.28;;;6.15;80.90
9129;BME280;4599;50.906;6.786;2023-11-25T11:09:58;99832.06;;;6.93;78.84
9129;BME280;4599;50.906;6.786;2023-11-25T11:14:06;99832.03;;;6.80;77.13
9129;BME280;4599;50.906;6.786;2023-11-25T11:18:18;99836.00;;;6.72;79.88
9129;BME280;4599;50.906;6.786;2023-11-25T11:22:21;99825.25;;;6.54;79.24
9129;BME280;4599;50.906;6.786;2023-11-25T11:26:26;99819.69;;;5.94;82.01
9129;BME280;4599;50.906;6.786;2023-11-25T11:30:37;99824.59;;;5.97;82.43
9129;BME280;4599;50.906;6.786;2023-11-25T11:34:41;99822.75;;;5.71;82.06
9129;BME280;4599;50.906;6.786;2023-11-25T11:38:43;99817.81;;;6.10;81.39
9129;BME280;4599;50.906;6.786;2023-11-25T11:42:47;99809.22;;;6.13;81.46
9129;BME280;4599;50.906;6.786;2023-11-25T11:46:48;99810.53;;;5.91;82.13
9129;BME280;4599;50.906;6.786;2023-11-25T11:50:51;99800.44;;;5.90;83.25
9129;BME280;4599;50.906;6.786;2023-11-25T11:54:53;99815.63;;;5.91;83.57
9129;BME280;4599;50.906;6.786;2023-11-25T11:58:55;99782.91;;;5.71;82.69
9129;BME280;4599;50.906;6.786;2023-11-25T12:02:57;99800.69;;;5.99;82.68
9129;BME280;4599;50.906;6.786;2023-11-25T12:07:00;99797.59;;;6.09;83.55
9129;BME280;4599;50.906;6.786;2023-11-25T12:11:02;99795.41;;;6.03;83.73
9129;BME280;4599;50.906;6.786;2023-11-25T12:15:05;99799.06;;;5.98;84.30
9129;BME280;4599;50.906;6.786;2023-11-25T12:19:06;99804.91;;;5.86;83.71
9129;BME280;4599;50.906;6.786;2023-11-25T12:23:10;99812.13;;;5.78;84.22
9129;BME280;4599;50.906;6.786;2023-11-25T12:27:13;99788.94;;;5.56;83.99
9129;BME280;4599;50.906;6.786;2023-11-25T12:31:16;99802.59;;;5.68;85.97
9129;BME280;4599;50.906;6.786;2023-11-25T12:35:17;99809.72;;;5.63;84.92
9129;BME280;4599;50.906;6.786;2023-11-25T12:39:20;99803.34;;;5.84;85.68
9129;BME280;4599;50.906;6.786;2023-11-25T12:43:21;99786.53;;;5.95;84.39
9129;BME280;4599;50.906;6.786;2023-11-25T12:47:23;99789.53;;;6.29;84.29
9129;BME280;4599;50.906;6.786;2023-11-25T12:51:25;99786.91;;;6.43;83.29
9129;BME280;4599;50.906;6.786;2023-11-25T12:55:37;99787.34;;;6.49;80.88
9129;BME280;4599;50.906;6.786;2023-11-25T12:59:39;99733.97;;;6.35;81.30
9129;BME280;4599;50.906;6.786;2023-11-25T13:03:41;99775.53;;;6.48;82.24
9129;BME280;4599;50.906;6.786;2023-11-25T13:07:43;99778.31;;;6.31;81.37
9129;BME280;4599;50.906;6.786;2023-11-25T13:11:47;99770.47;;;6.22;81.37
9129;BME280;4599;50.906;6.786;2023-11-25T13:15:48;99771.66;;;6.43;81.85
9129;BME280;4599;50.906;6.786;2023-11-25T13:19:50;99770.22;;;6.39;80.49
9129;BME280;4599;50.906;6.786;2023-11-25T13:23:52;99773.84;;;6.22;80.80
9129;BME280;4599;50.906;6.786;2023-11-25T13:27:55;99782.16;;;6.24;80.82
9129;BME280;4599;50.906;6.786;2023-11-25T13:31:56;99767.16;;;6.07;82.28
9129;BME280;4599;50.906;6.786;2023-11-25T13:35:58;99783.50;;;6.03;82.72
9129;BME280;4599;50.906;6.786;2023-11-25T13:40:00;99774.59;;;6.10;82.13
9129;BME280;4599;50.906;6.786;2023-11-25T13:44:03;99776.50;;;6.07;81.61
9129;BME280;4599;50.906;6.786;2023-11-25T13:48:06;99766.00;;;5.98;82.45
9129;BME280;4599;50.906;6.786;2023-11-25T13:52:09;99759.50;;;6.07;81.79
9129;BME280;4599;50.906;6.786;2023-11-25T13:56:12;99757.94;;;6.19;82.05
9129;BME280;4599;50.906;6.786;2023-11-25T14:00:15;99745.03;;;6.22;81.40
9129;BME280;4599;50.906;6.786;2023-11-25T14:04:17;99749.56;;;6.17;81.81
9129;BME280;4599;50.906;6.786;2023-11-25T14:08:18;99757.34;;;6.28;82.27
9129;BME280;4599;50.906;6.786;2023-11-25T14:12:20;99758.75;;;6.19;82.47
9129;BME280;4599;50.906;6.786;2023-11-25T14:16:23;99773.75;;;6.10;82.79
9129;BME280;4599;50.906;6.786;2023-11-25T14:20:24;99760.88;;;6.13;83.11
9129;BME280;4599;50.906;6.786;2023-11-25T14:24:26;99753.25;;;6.13;83.09
9129;BME280;4599;50.906;6.786;2023-11-25T14:28:27;99752.44;;;6.12;82.10
9129;BME280;4599;50.906;6.786;2023-11-25T14:32:30;99747.63;;;6.08;82.30
9129;BME280;4599;50.906;6.786;2023-11-25T14:36:32;99765.97;;;6.13;81.46
9129;BME280;4599;50.906;6.786;2023-11-25T14:40:34;99768.78;;;6.08;82.12
9129;BME280;4599;50.906;6.786;2023-11-25T14:44:35;99768.50;;;6.13;82.98
9129;BME280;4599;50.906;6.786;2023-11-25T14:48:38;99762.13;;;6.20;82.10
9129;BME280;4599;50.906;6.786;2023-11-25T14:52:40;99760.13;;;6.11;81.51
9129;BME280;4599;50.906;6.786;2023-11-25T14:56:41;99761.66;;;5.86;83.09
9129;BME280;4599;50.906;6.786;2023-11-25T15:00:43;99731.06;;;5.74;82.99
9129;BME280;4599;50.906;6.786;2023-11-25T15:04:47;99775.09;;;5.88;83.42
9129;BME280;4599;50.906;6.786;2023-11-25T15:08:48;99771.66;;;5.89;84.42
9129;BME280;4599;50.906;6.786;2023-11-25T15:12:50;99773.75;;;6.10;83.08
9129;BME280;4599;50.906;6.786;2023-11-25T15:16:52;99776.00;;;6.02;82.97
9129;BME280;4599;50.906;6.786;2023-11-25T15:20:55;99768.81;;;5.94;82.90
9129;BME280;4599;50.906;6.786;2023-11-25T15:24:56;99772.38;;;5.91;83.61
9129;BME280;4599;50.906;6.786;2023-11-25T15:28:58;99779.63;;;5.97;83.09
9129;BME280;4599;50.906;6.786;2023-11-25T15:32:59;99786.00;;;5.76;84.39
9129;BME280;4599;50.906;6.786;2023-11-25T15:37:03;99778.28;;;5.64;84.43
9129;BME280;4599;50.906;6.786;2023-11-25T15:41:05;99770.56;;;5.65;85.06
9129;BME280;4599;50.906;6.786;2023-11-25T15:45:08;99788.63;;;5.75;85.87
9129;BME280;4599;50.906;6.786;2023-11-25T15:49:10;99783.66;;;5.73;85.30
9129;BME280;4599;50.906;6.786;2023-11-25T15:53:13;99784.19;;;5.64;85.74
9129;BME280;4599;50.906;6.786;2023-11-25T15:57:14;99787.03;;;5.60;86.13
9129;BME280;4599;50.906;6.786;2023-11-25T16:01:16;99791.28;;;5.73;85.77
9129;BME280;4599;50.906;6.786;2023-11-25T16:05:18;99797.91;;;5.62;85.83
9129;BME280;4599;50.906;6.786;2023-11-25T16:09:21;99798.28;;;5.56;85.37
9129;BME280;4599;50.906;6.786;2023-11-25T16:13:22;99801.44;;;5.59;85.16
9129;BME280;4599;50.906;6.786;2023-11-25T16:17:24;99809.25;;;5.70;83.82
9129;BME280;4599;50.906;6.786;2023-11-25T16:21:25;99796.81;;;5.66;83.78
9129;BME280;4599;50.906;6.786;2023-11-25T16:25:28;99801.06;;;5.65;82.71
9129;BME280;4599;50.906;6.786;2023-11-25T16:29:29;99798.72;;;5.76;82.93
9129;BME280;4599;50.906;6.786;2023-11-25T16:33:32;99808.50;;;5.68;83.52
9129;BME280;4599;50.906;6.786;2023-11-25T16:37:34;99814.06;;;5.61;83.87
9129;BME280;4599;50.906;6.786;2023-11-25T16:41:37;99824.84;;;5.50;82.99
9129;BME280;4599;50.906;6.786;2023-11-25T16:45:38;99815.13;;;5.42;83.41
9129;BME280;4599;50.906;6.786;2023-11-25T16:49:40;99830.84;;;5.35;84.60
9129;BME280;4599;50.906;6.786;2023-11-25T16:53:42;99827.94;;;5.55;84.51
9129;BME280;4599;50.906;6.786;2023-11-25T16:57:45;99855.97;;;5.39;85.59
9129;BME280;4599;50.906;6.786;2023-11-25T17:01:47;99842.19;;;5.43;85.24
9129;BME280;4599;50.906;6.786;2023-11-25T17:05:48;99848.25;;;5.27;85.47
9129;BME280;4599;50.906;6.786;2023-11-25T17:09:50;99854.41;;;5.23;85.76
9129;BME280;4599;50.906;6.786;2023-11-25T17:13:53;99858.84;;;5.19;86.68
9129;BME280;4599;50.906;6.786;2023-11-25T17:17:55;99861.13;;;5.24;87.02
9129;BME280;4599;50.906;6.786;2023-11-25T17:21:56;99880.22;;;5.31;86.82
9129;BME280;4599;50.906;6.786;2023-11-25T17:25:58;99883.81;;;5.27;85.85
9129;BME280;4599;50.906;6.786;2023-11-25T17:30:01;99877.28;;;5.23;85.76
9129;BME280;4599;50.906;6.786;2023-11-25T17:34:02;99881.53;;;5.22;85.80
9129;BME280;4599;50.906;6.786;2023-11-25T17:38:04;99892.72;;;5.34;85.60
9129;BME280;4599;50.906;6.786;2023-11-25T17:42:06;99899.28;;;5.38;85.24
9129;BME280;4599;50.906;6.786;2023-11-25T17:46:09;99908.72;;;5.50;86.17
9129;BME280;4599;50.906;6.786;2023-11-25T17:50:10;99904.28;;;5.10;89.33
9129;BME280;4599;50.906;6.786;2023-11-25T17:54:12;99920.59;;;5.06;90.27
9129;BME280;4599;50.906;6.786;2023-11-25T17:58:13;99923.59;;;5.12;90.41
9129;BME280;4599;50.906;6.786;2023-11-25T18:02:16;99928.16;;;5.21;89.76
9129;BME280;4599;50.906;6.786;2023-11-25T18:06:18;99927.22;;;5.08;89.43
9129;BME280;4599;50.906;6.786;2023-11-25T18:10:20;99929.75;;;5.08;89.39
9129;BME280;4599;50.906;6.786;2023-11-25T18:14:21;99928.03;;;5.09;89.57
9129;BME280;4599;50.906;6.786;2023-11-25T18:18:24;99935.81;;;5.06;90.14
9129;BME280;4599;50.906;6.786;2023-11-25T18:22:26;99937.44;;;5.07;89.58
9129;BME280;4599;50.906;6.786;2023-11-25T18:26:28;99930.28;;;4.99;89.33
9129;BME280;4599;50.906;6.786;2023-11-25T18:30:29;99936.97;;;5.00;89.31
9129;BME280;4599;50.906;6.786;2023-11-25T18:34:32;99932.31;;;4.92;88.98
9129;BME280;4599;50.906;6.786;2023-11-25T18:38:34;99931.41;;;4.93;90.08
9129;BME280;4599;50.906;6.786;2023-11-25T18:42:35;99942.88;;;5.00;89.26
9129;BME280;4599;50.906;6.786;2023-11-25T18:46:37;99942.81;;;5.02;88.67
9129;BME280;4599;50.906;6.786;2023-11-25T18:50:40;99942.97;;;4.83;90.12
9129;BME280;4599;50.906;6.786;2023-11-25T18:54:42;99909.78;;;4.57;88.52
9129;BME280;4599;50.906;6.786;2023-11-25T18:58:44;99959.66;;;5.03;88.22
9129;BME280;4599;50.906;6.786;2023-11-25T19:02:45;99968.28;;;4.85;88.61
9129;BME280;4599;50.906;6.786;2023-11-25T19:06:48;99981.22;;;4.65;89.79
9129;BME280;4599;50.906;6.786;2023-11-25T19:10:50;99990.56;;;4.80;88.46
9129;BME280;4599;50.906;6.786;2023-11-25T19:14:52;99992.03;;;4.68;89.05
9129;BME280;4599;50.906;6.786;2023-11-25T19:18:53;100004.00;;;4.66;88.08
9129;BME280;4599;50.906;6.786;2023-11-25T19:22:56;100002.00;;;4.56;88.52
9129;BME280;4599;50.906;6.786;2023-11-25T19:26:58;100012.16;;;4.56;89.44
9129;BME280;4599;50.906;6.786;2023-11-25T19:30:59;100007.00;;;4.57;89.79
9129;BME280;4599;50.906;6.786;2023-11-25T19:35:01;100009.06;;;4.66;89.95
9129;BME280;4599;50.906;6.786;2023-11-25T19:39:04;100015.34;;;4.75;89.45
9129;BME280;4599;50.906;6.786;2023-11-25T19:43:06;100021.25;;;4.75;89.07
9129;BME280;4599;50.906;6.786;2023-11-25T19:47:08;100032.72;;;4.82;88.81
9129;BME280;4599;50.906;6.786;2023-11-25T19:51:10;100030.19;;;4.82;88.55
9129;BME280;4599;50.906;6.786;2023-11-25T19:55:12;100046.66;;;4.91;88.62
9129;BME280;4599;50.906;6.786;2023-11-25T19:59:14;100055.56;;;4.82;87.79
9129;BME280;4599;50.906;6.786;2023-11-25T20:03:15;100057.94;;;4.70;88.05
9129;BME280;4599;50.906;6.786;2023-11-25T20:07:17;100045.06;;;4.57;88.93
9129;BME280;4599;50.906;6.786;2023-11-25T20:11:20;100064.91;;;4.66;89.07
9129;BME280;4599;50.906;6.786;2023-11-25T20:15:21;100074.00;;;4.70;88.56
9129;BME280;4599;50.906;6.786;2023-11-25T20:19:23;100079.34;;;4.81;88.86
9129;BME280;4599;50.906;6.786;2023-11-25T20:23:25;100081.88;;;4.81;88.63
9129;BME280;4599;50.906;6.786;2023-11-25T20:27:27;100093.81;;;4.79;89.38
9129;BME280;4599;50.906;6.786;2023-11-25T20:31:29;100089.50;;;4.81;89.02
9129;BME280;4599;50.906;6.786;2023-11-25T20:35:30;100093.75;;;4.81;88.29
9129;BME280;4599;50.906;6.786;2023-11-25T20:39:32;100091.22;;;4.81;89.25
9129;BME280;4599;50.906;6.786;2023-11-25T20:43:35;100099.97;;;4.91;88.96
9129;BME280;4599;50.906;6.786;2023-11-25T20:47:37;100104.16;;;4.92;89.52
9129;BME280;4599;50.906;6.786;2023-11-25T20:51:38;100104.78;;;4.80;88.98
9129;BME280;4599;50.906;6.786;2023-11-25T20:55:40;100104.69;;;4.66;89.27
9129;BME280;4599;50.906;6.786;2023-11-25T20:59:43;100107.69;;;4.57;88.90
9129;BME280;4599;50.906;6.786;2023-11-25T21:03:44;100115.69;;;4.49;89.36
9129;BME280;4599;50.906;6.786;2023-11-25T21:07:46;100115.09;;;4.44;89.11
9129;BME280;4599;50.906;6.786;2023-11-25T21:11:48;100106.47;;;4.31;89.59
9129;BME280;4599;50.906;6.786;2023-11-25T21:15:50;100110.72;;;4.30;89.96
9129;BME280;4599;50.906;6.786;2023-11-25T21:19:52;100123.03;;;4.21;90.51
9129;BME280;4599;50.906;6.786;2023-11-25T21:23:54;100131.59;;;4.18;90.65
9129;BME280;4599;50.906;6.786;2023-11-25T21:27:55;100138.31;;;4.19;90.90
9129;BME280;4599;50.906;6.786;2023-11-25T21:31:58;100133.53;;;4.13;90.93
9129;BME280;4599;50.906;6.786;2023-11-25T21:35:59;100136.16;;;4.12;90.72
9129;BME280;4599;50.906;6.786;2023-11-25T21:40:01;100143.91;;;4.09;90.87
9129;BME280;4599;50.906;6.786;2023-11-25T21:44:16;100143.91;;;4.09;90.36
9129;BME280;4599;50.906;6.786;2023-11-25T21:48:19;100137.94;;;4.10;90.48
9129;BME280;4599;50.906;6.786;2023-11-25T21:52:20;100140.69;;;4.05;90.78
9129;BME280;4599;50.906;6.786;2023-11-25T21:56:22;100138.94;;;4.07;90.63
9129;BME280;4599;50.906;6.786;2023-11-25T22:00:24;100132.00;;;4.11;90.48
9129;BME280;4599;50.906;6.786;2023-11-25T22:04:27;100134.75;;;4.06;91.64
9129;BME280;4599;50.906;6.786;2023-11-25T22:08:28;100137.06;;;4.11;91.01
9129;BME280;4599;50.906;6.786;2023-11-25T22:12:30;100136.44;;;4.06;91.82
9129;BME280;4599;50.906;6.786;2023-11-25T22:16:31;100136.22;;;3.93;91.58